createdAt,value
2019-03-19T00:01:02.187Z,0.00
2019-03-19T00:02:07.707Z,0.00
2019-03-19T00:03:13.195Z,0.00
2019-03-19T00:04:18.703Z,0.00
2019-03-19T00:05:24.225Z,0.00
2019-03-19T00:06:29.726Z,0.00
2019-03-19T00:07:35.217Z,0.00
2019-03-19T00:08:40.742Z,0.00
2019-03-19T00:09:46.250Z,0.00
2019-03-19T00:10:51.742Z,0.00
2019-03-19T00:11:57.992Z,0.00
2019-03-19T00:13:02.764Z,0.00
2019-03-19T00:14:08.261Z,0.00
2019-03-19T00:15:13.771Z,0.00
2019-03-19T00:16:19.285Z,0.00
2019-03-19T00:17:24.777Z,0.00
2019-03-19T00:18:30.269Z,0.00
2019-03-19T00:19:35.790Z,0.00
2019-03-19T00:20:41.311Z,0.00
2019-03-19T00:21:46.818Z,0.00
2019-03-19T00:22:52.312Z,0.00
2019-03-19T00:23:57.820Z,0.00
2019-03-19T00:25:03.323Z,0.00
2019-03-19T00:26:08.841Z,0.00
2019-03-19T00:27:14.341Z,0.00
2019-03-19T00:28:19.850Z,0.00
2019-03-19T00:29:25.353Z,0.00
2019-03-19T00:30:30.858Z,0.00
2019-03-19T00:31:36.368Z,0.00
2019-03-19T00:32:41.871Z,0.00
2019-03-19T00:33:47.389Z,0.00
2019-03-19T00:34:52.895Z,0.00
2019-03-19T00:35:58.397Z,0.00
2019-03-19T00:37:03.892Z,0.00
2019-03-19T00:38:09.409Z,0.00
2019-03-19T00:39:14.908Z,0.00
2019-03-19T00:40:20.421Z,0.00
2019-03-19T00:41:25.923Z,0.00
2019-03-19T00:42:31.435Z,0.00
2019-03-19T00:43:36.929Z,0.00
2019-03-19T00:44:42.437Z,0.00
2019-03-19T00:45:47.943Z,0.00
2019-03-19T00:46:53.453Z,0.00
2019-03-19T00:47:58.968Z,0.00
2019-03-19T00:49:06.698Z,0.00
2019-03-19T00:50:09.968Z,0.00
2019-03-19T00:51:15.475Z,0.00
2019-03-19T00:52:20.982Z,0.00
2019-03-19T00:53:26.482Z,0.00
2019-03-19T00:54:32.034Z,0.00
2019-03-19T00:55:40.911Z,0.00
2019-03-19T00:56:43.006Z,0.00
2019-03-19T00:57:48.521Z,0.00
2019-03-19T00:58:54.023Z,0.00
2019-03-19T00:59:59.526Z,0.00
2019-03-19T01:01:05.037Z,0.00
2019-03-19T01:02:10.528Z,0.00
2019-03-19T01:03:16.037Z,0.00
2019-03-19T01:04:21.542Z,0.00
2019-03-19T01:05:27.050Z,0.00
2019-03-19T01:06:32.561Z,0.00
2019-03-19T01:07:38.062Z,0.00
2019-03-19T01:08:43.584Z,0.00
2019-03-19T01:09:49.076Z,0.00
2019-03-19T01:10:54.575Z,0.00
2019-03-19T01:12:00.086Z,0.00
2019-03-19T01:13:05.590Z,0.00
2019-03-19T01:14:11.093Z,0.00
2019-03-19T01:15:16.602Z,0.00
2019-03-19T01:16:22.118Z,0.00
2019-03-19T01:17:27.615Z,0.00
2019-03-19T01:18:33.120Z,0.00
2019-03-19T01:19:38.627Z,0.00
2019-03-19T01:20:44.128Z,0.00
2019-03-19T01:21:49.634Z,0.00
2019-03-19T01:22:55.137Z,0.00
2019-03-19T01:24:00.648Z,0.00
2019-03-19T01:25:06.153Z,0.00
2019-03-19T01:26:11.654Z,0.00
2019-03-19T01:27:17.172Z,0.00
2019-03-19T01:28:22.669Z,0.00
2019-03-19T01:29:28.184Z,0.00
2019-03-19T01:30:33.677Z,0.00
2019-03-19T01:31:39.185Z,0.00
2019-03-19T01:32:44.686Z,0.00
2019-03-19T01:33:50.201Z,0.00
2019-03-19T01:34:55.702Z,0.00
2019-03-19T01:36:01.226Z,0.00
2019-03-19T01:37:06.719Z,0.00
2019-03-19T01:38:12.219Z,0.00
2019-03-19T01:39:17.723Z,0.00
2019-03-19T01:40:23.226Z,0.00
2019-03-19T01:41:28.728Z,0.00
2019-03-19T01:42:34.234Z,0.00
2019-03-19T01:43:39.745Z,0.00
2019-03-19T01:44:45.252Z,0.00
2019-03-19T01:45:50.754Z,0.00
2019-03-19T01:46:56.266Z,0.00
2019-03-19T01:48:01.773Z,0.00
2019-03-19T01:49:07.272Z,0.00
2019-03-19T01:50:12.776Z,0.00
2019-03-19T01:51:18.280Z,0.00
2019-03-19T01:52:23.784Z,0.00
2019-03-19T01:53:29.295Z,0.00
2019-03-19T01:54:34.799Z,0.00
2019-03-19T01:55:40.304Z,0.00
2019-03-19T01:56:45.807Z,0.00
2019-03-19T01:57:51.315Z,0.00
2019-03-19T01:58:56.826Z,0.00
2019-03-19T02:00:02.330Z,0.00
2019-03-19T02:01:07.835Z,0.00
2019-03-19T02:02:13.346Z,0.00
2019-03-19T02:03:18.837Z,0.00
2019-03-19T02:04:24.342Z,0.00
2019-03-19T02:05:29.850Z,0.00
2019-03-19T02:06:35.361Z,0.00
2019-03-19T02:07:40.869Z,0.00
2019-03-19T02:08:46.366Z,0.00
2019-03-19T02:09:51.882Z,0.00
2019-03-19T02:10:57.382Z,0.00
2019-03-19T02:12:02.884Z,0.00
2019-03-19T02:13:08.380Z,0.00
2019-03-19T02:14:13.885Z,0.00
2019-03-19T02:15:19.390Z,0.00
2019-03-19T02:16:24.898Z,0.00
2019-03-19T02:17:30.407Z,0.00
2019-03-19T02:18:35.920Z,0.00
2019-03-19T02:19:41.425Z,0.00
2019-03-19T02:20:46.928Z,0.00
2019-03-19T02:21:52.429Z,0.00
2019-03-19T02:22:57.936Z,0.00
2019-03-19T02:24:03.433Z,0.00
2019-03-19T02:25:08.972Z,0.00
2019-03-19T02:26:16.659Z,0.00
2019-03-19T02:27:19.960Z,0.00
2019-03-19T02:28:25.461Z,0.00
2019-03-19T02:29:30.963Z,0.00
2019-03-19T02:30:36.550Z,0.00
2019-03-19T02:31:41.984Z,0.00
2019-03-19T02:32:47.479Z,0.00
2019-03-19T02:33:53.052Z,0.00
2019-03-19T02:34:58.492Z,0.00
2019-03-19T02:36:04.003Z,0.00
2019-03-19T02:37:09.504Z,0.00
2019-03-19T02:38:15.006Z,0.00
2019-03-19T02:39:20.508Z,0.00
2019-03-19T02:40:26.012Z,0.00
2019-03-19T02:41:31.513Z,0.00
2019-03-19T02:42:37.017Z,0.00
2019-03-19T02:43:42.522Z,0.00
2019-03-19T02:44:48.038Z,0.00
2019-03-19T02:45:53.552Z,0.00
2019-03-19T02:46:59.048Z,0.00
2019-03-19T02:48:04.550Z,0.00
2019-03-19T02:49:10.065Z,0.00
2019-03-19T02:50:15.556Z,0.00
2019-03-19T02:51:21.058Z,0.00
2019-03-19T02:52:26.562Z,0.00
2019-03-19T02:53:32.081Z,0.00
2019-03-19T02:54:37.569Z,0.00
2019-03-19T02:55:43.093Z,0.00
2019-03-19T02:56:48.593Z,0.00
2019-03-19T02:57:54.091Z,0.00
2019-03-19T02:58:59.596Z,0.00
2019-03-19T03:00:05.110Z,0.00
2019-03-19T03:01:10.606Z,0.00
2019-03-19T03:02:16.109Z,0.00
2019-03-19T03:03:21.616Z,0.00
2019-03-19T03:04:27.120Z,0.00
2019-03-19T03:05:32.630Z,0.00
2019-03-19T03:06:38.128Z,0.00
2019-03-19T03:07:43.632Z,0.00
2019-03-19T03:08:49.134Z,0.00
2019-03-19T03:09:54.651Z,0.00
2019-03-19T03:11:00.152Z,0.00
2019-03-19T03:12:05.657Z,0.00
2019-03-19T03:13:11.159Z,0.00
2019-03-19T03:14:16.655Z,0.00
2019-03-19T03:15:22.182Z,0.00
2019-03-19T03:16:27.682Z,0.00
2019-03-19T03:17:33.175Z,0.00
2019-03-19T03:18:38.677Z,0.00
2019-03-19T03:19:44.182Z,0.00
2019-03-19T03:20:49.686Z,0.00
2019-03-19T03:21:55.202Z,0.00
2019-03-19T03:23:00.695Z,0.00
2019-03-19T03:24:06.220Z,0.00
2019-03-19T03:25:11.708Z,0.00
2019-03-19T03:26:17.231Z,0.00
2019-03-19T03:27:22.721Z,0.00
2019-03-19T03:28:28.218Z,0.00
2019-03-19T03:29:33.722Z,0.00
2019-03-19T03:30:39.246Z,0.00
2019-03-19T03:31:44.738Z,0.00
2019-03-19T03:32:50.274Z,0.00
2019-03-19T03:33:55.749Z,0.00
2019-03-19T03:35:01.261Z,0.00
2019-03-19T03:36:06.761Z,20.00
2019-03-19T03:37:12.257Z,24.00
2019-03-19T03:38:17.763Z,24.00
2019-03-19T03:39:23.266Z,20.00
2019-03-19T03:40:28.769Z,20.00
2019-03-19T03:41:34.281Z,20.00
2019-03-19T03:42:42.826Z,20.00
2019-03-19T03:43:45.291Z,20.00
2019-03-19T03:44:50.795Z,20.00
2019-03-19T03:45:56.297Z,20.00
2019-03-19T03:47:01.811Z,16.00
2019-03-19T03:48:07.310Z,16.00
2019-03-19T03:49:12.817Z,20.00
2019-03-19T03:50:18.317Z,20.00
2019-03-19T03:51:23.817Z,20.00
2019-03-19T03:52:29.319Z,20.00
2019-03-19T03:53:34.824Z,20.00
2019-03-19T03:54:40.329Z,20.00
2019-03-19T03:55:45.844Z,20.00
2019-03-19T03:57:01.332Z,20.00
2019-03-19T03:57:56.839Z,20.00
2019-03-19T03:59:02.358Z,20.00
2019-03-19T04:00:07.852Z,20.00
2019-03-19T04:01:13.354Z,20.00
2019-03-19T04:02:18.864Z,16.00
2019-03-19T04:03:24.375Z,16.00
2019-03-19T04:04:29.877Z,16.00
2019-03-19T04:05:35.470Z,16.00
2019-03-19T04:06:40.888Z,16.00
2019-03-19T04:07:46.380Z,16.00
2019-03-19T04:08:51.883Z,20.00
2019-03-19T04:09:57.387Z,20.00
2019-03-19T04:11:02.894Z,20.00
2019-03-19T04:12:08.403Z,20.00
2019-03-19T04:13:13.903Z,20.00
2019-03-19T04:14:19.413Z,20.00
2019-03-19T04:15:24.924Z,20.00
2019-03-19T04:16:30.421Z,20.00
2019-03-19T04:17:35.917Z,20.00
2019-03-19T04:18:41.431Z,20.00
2019-03-19T04:19:46.933Z,20.00
2019-03-19T04:20:52.545Z,20.00
2019-03-19T04:21:57.945Z,20.00
2019-03-19T04:23:03.454Z,20.00
2019-03-19T04:24:08.962Z,20.00
2019-03-19T04:25:14.459Z,20.00
2019-03-19T04:26:19.956Z,20.00
2019-03-19T04:27:25.461Z,20.00
2019-03-19T04:28:30.963Z,20.00
2019-03-19T04:29:36.471Z,20.00
2019-03-19T04:30:41.971Z,20.00
2019-03-19T04:31:47.487Z,20.00
2019-03-19T04:32:52.985Z,20.00
2019-03-19T04:33:58.490Z,20.00
2019-03-19T04:35:04.002Z,20.00
2019-03-19T04:36:09.498Z,20.00
2019-03-19T04:37:15.006Z,20.00
2019-03-19T04:38:20.499Z,20.00
2019-03-19T04:39:26.010Z,20.00
2019-03-19T04:40:31.512Z,20.00
2019-03-19T04:41:37.029Z,20.00
2019-03-19T04:42:42.542Z,20.00
2019-03-19T04:43:48.025Z,20.00
2019-03-19T04:44:53.529Z,20.00
2019-03-19T04:45:59.035Z,20.00
2019-03-19T04:47:04.552Z,20.00
2019-03-19T04:48:10.043Z,20.00
2019-03-19T04:49:15.541Z,20.00
2019-03-19T04:50:21.060Z,20.00
2019-03-19T04:51:26.557Z,20.00
2019-03-19T04:52:32.067Z,20.00
2019-03-19T04:53:37.564Z,20.00
2019-03-19T04:54:43.068Z,20.00
2019-03-19T04:55:48.584Z,20.00
2019-03-19T04:56:54.074Z,20.00
2019-03-19T04:57:59.590Z,20.00
2019-03-19T04:59:05.083Z,20.00
2019-03-19T05:00:10.591Z,20.00
2019-03-19T05:01:16.099Z,20.00
2019-03-19T05:02:21.602Z,16.00
2019-03-19T05:03:27.109Z,16.00
2019-03-19T05:04:32.605Z,16.00
2019-03-19T05:05:38.110Z,16.00
2019-03-19T05:06:43.619Z,16.00
2019-03-19T05:07:49.122Z,0.00
2019-03-19T05:08:54.627Z,0.00
2019-03-19T05:10:00.252Z,0.00
2019-03-19T05:11:05.639Z,0.00
2019-03-19T05:12:11.148Z,0.00
2019-03-19T05:13:16.651Z,0.00
2019-03-19T05:14:22.152Z,0.00
2019-03-19T05:15:27.657Z,0.00
2019-03-19T05:16:33.171Z,0.00
2019-03-19T05:17:38.667Z,4.00
2019-03-19T05:18:44.166Z,0.00
2019-03-19T05:19:49.670Z,0.00
2019-03-19T05:20:55.178Z,0.00
2019-03-19T05:22:00.686Z,4.00
2019-03-19T05:23:06.191Z,0.00
2019-03-19T05:24:11.688Z,4.00
2019-03-19T05:25:17.196Z,4.00
2019-03-19T05:26:22.695Z,4.00
2019-03-19T05:27:36.989Z,4.00
2019-03-19T05:28:33.710Z,8.00
2019-03-19T05:29:39.212Z,8.00
2019-03-19T05:30:44.729Z,8.00
2019-03-19T05:31:50.237Z,12.00
2019-03-19T05:32:55.729Z,12.00
2019-03-19T05:34:01.229Z,12.00
2019-03-19T05:35:06.738Z,12.00
2019-03-19T05:36:12.235Z,20.00
2019-03-19T05:37:17.747Z,20.00
2019-03-19T05:38:23.264Z,20.00
2019-03-19T05:39:28.752Z,24.00
2019-03-19T05:40:34.258Z,24.00
2019-03-19T05:41:39.771Z,28.00
2019-03-19T05:42:45.263Z,32.00
2019-03-19T05:43:50.833Z,32.00
2019-03-19T05:44:56.273Z,36.00
2019-03-19T05:46:01.784Z,36.00
2019-03-19T05:47:07.291Z,40.00
2019-03-19T05:48:12.790Z,44.00
2019-03-19T05:49:18.292Z,48.00
2019-03-19T05:50:23.796Z,52.00
2019-03-19T05:51:29.305Z,52.00
2019-03-19T05:52:34.805Z,56.00
2019-03-19T05:53:40.306Z,60.00
2019-03-19T05:54:45.812Z,60.00
2019-03-19T05:55:51.323Z,64.00
2019-03-19T05:56:56.818Z,68.00
2019-03-19T05:58:02.337Z,72.00
2019-03-19T05:59:07.829Z,72.00
2019-03-19T06:00:13.339Z,76.00
2019-03-19T06:01:18.839Z,80.00
2019-03-19T06:02:24.352Z,80.00
2019-03-19T06:03:29.841Z,84.00
2019-03-19T06:04:35.347Z,88.00
2019-03-19T06:05:40.852Z,88.00
2019-03-19T06:06:46.362Z,92.00
2019-03-19T06:07:51.863Z,96.00
2019-03-19T06:08:57.370Z,100.00
2019-03-19T06:10:02.887Z,100.00
2019-03-19T06:11:08.376Z,104.00
2019-03-19T06:12:13.894Z,108.00
2019-03-19T06:13:19.382Z,108.00
2019-03-19T06:14:24.890Z,112.00
2019-03-19T06:15:30.400Z,112.00
2019-03-19T06:16:35.903Z,116.00
2019-03-19T06:17:41.405Z,120.00
2019-03-19T06:18:46.911Z,124.00
2019-03-19T06:19:52.408Z,120.00
2019-03-19T06:20:57.926Z,124.00
2019-03-19T06:22:03.423Z,128.00
2019-03-19T06:23:08.932Z,132.00
2019-03-19T06:24:14.430Z,132.00
2019-03-19T06:25:19.942Z,136.00
2019-03-19T06:26:25.438Z,136.00
2019-03-19T06:27:30.934Z,140.00
2019-03-19T06:28:36.445Z,144.00
2019-03-19T06:29:41.951Z,144.00
2019-03-19T06:30:47.449Z,144.00
2019-03-19T06:31:52.961Z,148.00
2019-03-19T06:32:58.475Z,148.00
2019-03-19T06:34:03.964Z,152.00
2019-03-19T06:35:09.466Z,152.00
2019-03-19T06:36:14.982Z,156.00
2019-03-19T06:37:20.479Z,152.00
2019-03-19T06:38:25.986Z,156.00
2019-03-19T06:39:31.483Z,152.00
2019-03-19T06:40:36.988Z,152.00
2019-03-19T06:41:42.495Z,152.00
2019-03-19T06:42:47.998Z,156.00
2019-03-19T06:43:53.506Z,160.00
2019-03-19T06:44:59.015Z,156.00
2019-03-19T06:46:04.518Z,160.00
2019-03-19T06:47:10.027Z,172.00
2019-03-19T06:48:15.524Z,172.00
2019-03-19T06:49:21.025Z,176.00
2019-03-19T06:50:28.121Z,172.00
2019-03-19T06:51:32.041Z,176.00
2019-03-19T06:52:37.550Z,180.00
2019-03-19T06:53:43.042Z,176.00
2019-03-19T06:54:48.556Z,180.00
2019-03-19T06:55:54.055Z,184.00
2019-03-19T06:56:59.559Z,184.00
2019-03-19T06:58:10.854Z,184.00
2019-03-19T06:59:10.565Z,188.00
2019-03-19T07:00:16.070Z,188.00
2019-03-19T07:01:21.578Z,192.00
2019-03-19T07:02:27.092Z,192.00
2019-03-19T07:03:32.586Z,192.00
2019-03-19T07:04:38.087Z,192.00
2019-03-19T07:05:43.604Z,196.00
2019-03-19T07:06:49.100Z,196.00
2019-03-19T07:07:54.615Z,196.00
2019-03-19T07:09:00.107Z,196.00
2019-03-19T07:10:05.609Z,200.00
2019-03-19T07:11:11.119Z,200.00
2019-03-19T07:12:16.629Z,200.00
2019-03-19T07:13:22.131Z,200.00
2019-03-19T07:14:27.638Z,204.00
2019-03-19T07:15:33.139Z,204.00
2019-03-19T07:16:38.656Z,204.00
2019-03-19T07:17:44.159Z,208.00
2019-03-19T07:18:49.664Z,208.00
2019-03-19T07:19:55.220Z,212.00
2019-03-19T07:21:00.673Z,208.00
2019-03-19T07:22:06.165Z,208.00
2019-03-19T07:23:11.667Z,212.00
2019-03-19T07:24:17.179Z,216.00
2019-03-19T07:25:22.685Z,212.00
2019-03-19T07:26:28.192Z,216.00
2019-03-19T07:27:33.696Z,216.00
2019-03-19T07:28:39.198Z,216.00
2019-03-19T07:29:44.697Z,216.00
2019-03-19T07:30:50.203Z,216.00
2019-03-19T07:31:55.726Z,220.00
2019-03-19T07:33:01.216Z,216.00
2019-03-19T07:34:06.723Z,220.00
2019-03-19T07:35:12.231Z,220.00
2019-03-19T07:36:17.736Z,224.00
2019-03-19T07:37:23.232Z,224.00
2019-03-19T07:38:28.745Z,224.00
2019-03-19T07:39:34.246Z,224.00
2019-03-19T07:40:39.750Z,224.00
2019-03-19T07:41:45.269Z,232.00
2019-03-19T07:42:50.768Z,232.00
2019-03-19T07:43:56.272Z,232.00
2019-03-19T07:45:01.775Z,232.00
2019-03-19T07:46:07.293Z,236.00
2019-03-19T07:47:12.807Z,240.00
2019-03-19T07:48:18.294Z,240.00
2019-03-19T07:49:23.810Z,240.00
2019-03-19T07:50:29.311Z,240.00
2019-03-19T07:51:34.813Z,244.00
2019-03-19T07:52:40.315Z,244.00
2019-03-19T07:53:45.824Z,244.00
2019-03-19T07:54:51.327Z,244.00
2019-03-19T07:55:56.841Z,244.00
2019-03-19T07:57:02.338Z,244.00
2019-03-19T07:58:07.847Z,248.00
2019-03-19T07:59:13.364Z,248.00
2019-03-19T08:00:18.869Z,252.00
2019-03-19T08:01:24.776Z,252.00
2019-03-19T08:02:29.870Z,256.00
2019-03-19T08:03:35.391Z,256.00
2019-03-19T08:04:40.898Z,260.00
2019-03-19T08:05:46.403Z,260.00
2019-03-19T08:06:52.420Z,264.00
2019-03-19T08:07:57.423Z,268.00
2019-03-19T08:09:02.905Z,268.00
2019-03-19T08:10:09.015Z,272.00
2019-03-19T08:11:16.560Z,276.00
2019-03-19T08:12:19.434Z,280.00
2019-03-19T08:13:24.935Z,284.00
2019-03-19T08:14:30.441Z,284.00
2019-03-19T08:15:35.946Z,292.00
2019-03-19T08:16:41.471Z,296.00
2019-03-19T08:17:46.958Z,296.00
2019-03-19T08:18:52.487Z,300.00
2019-03-19T08:19:57.982Z,304.00
2019-03-19T08:21:03.483Z,304.00
2019-03-19T08:22:08.998Z,308.00
2019-03-19T08:23:14.495Z,308.00
2019-03-19T08:24:20.004Z,312.00
2019-03-19T08:25:25.513Z,320.00
2019-03-19T08:26:31.050Z,320.00
2019-03-19T08:27:36.523Z,324.00
2019-03-19T08:28:42.041Z,320.00
2019-03-19T08:29:47.547Z,316.00
2019-03-19T08:30:53.059Z,324.00
2019-03-19T08:31:58.548Z,328.00
2019-03-19T08:33:04.063Z,332.00
2019-03-19T08:34:09.569Z,328.00
2019-03-19T08:35:15.075Z,332.00
2019-03-19T08:36:20.604Z,328.00
2019-03-19T08:37:26.092Z,332.00
2019-03-19T08:38:31.611Z,332.00
2019-03-19T08:39:37.103Z,332.00
2019-03-19T08:40:42.611Z,264.00
2019-03-19T08:41:48.123Z,252.00
2019-03-19T08:42:53.620Z,288.00
2019-03-19T08:43:59.133Z,284.00
2019-03-19T08:45:04.637Z,292.00
2019-03-19T08:46:10.149Z,276.00
2019-03-19T08:47:15.666Z,360.00
2019-03-19T08:48:21.163Z,380.00
2019-03-19T08:49:26.670Z,388.00
2019-03-19T08:50:32.178Z,356.00
2019-03-19T08:51:37.691Z,360.00
2019-03-19T08:52:43.188Z,400.00
2019-03-19T08:53:48.697Z,408.00
2019-03-19T08:54:54.206Z,412.00
2019-03-19T08:56:01.097Z,448.00
2019-03-19T08:57:05.226Z,364.00
2019-03-19T08:58:10.738Z,340.00
2019-03-19T08:59:16.247Z,312.00
2019-03-19T09:00:21.748Z,284.00
2019-03-19T09:01:27.257Z,332.00
2019-03-19T09:02:32.768Z,416.00
2019-03-19T09:03:38.273Z,336.00
2019-03-19T09:04:43.815Z,280.00
2019-03-19T09:05:49.281Z,272.00
2019-03-19T09:06:54.804Z,264.00
2019-03-19T09:08:00.304Z,264.00
2019-03-19T09:09:05.811Z,272.00
2019-03-19T09:10:11.319Z,284.00
2019-03-19T09:11:16.827Z,300.00
2019-03-19T09:12:22.341Z,432.00
2019-03-19T09:13:27.840Z,464.00
2019-03-19T09:14:33.345Z,472.00
2019-03-19T09:15:38.861Z,496.00
2019-03-19T09:16:44.371Z,556.00
2019-03-19T09:17:49.875Z,552.00
2019-03-19T09:18:55.395Z,604.00
2019-03-19T09:20:00.883Z,560.00
2019-03-19T09:21:06.393Z,500.00
2019-03-19T09:22:11.900Z,472.00
2019-03-19T09:23:17.410Z,456.00
2019-03-19T09:24:22.917Z,412.00
2019-03-19T09:25:28.430Z,516.00
2019-03-19T09:26:33.940Z,548.00
2019-03-19T09:27:39.458Z,540.00
2019-03-19T09:28:44.956Z,416.00
2019-03-19T09:29:50.477Z,448.00
2019-03-19T09:30:55.968Z,440.00
2019-03-19T09:32:01.472Z,420.00
2019-03-19T09:33:06.985Z,424.00
2019-03-19T09:34:12.494Z,684.00
2019-03-19T09:35:18.012Z,688.00
2019-03-19T09:36:23.510Z,624.00
2019-03-19T09:37:29.023Z,584.00
2019-03-19T09:38:34.527Z,524.00
2019-03-19T09:39:40.033Z,488.00
2019-03-19T09:40:45.552Z,448.00
2019-03-19T09:41:51.061Z,456.00
2019-03-19T09:42:56.565Z,400.00
2019-03-19T09:44:02.077Z,360.00
2019-03-19T09:45:07.575Z,320.00
2019-03-19T09:46:13.093Z,332.00
2019-03-19T09:47:18.614Z,432.00
2019-03-19T09:48:24.107Z,504.00
2019-03-19T09:49:29.607Z,516.00
2019-03-19T09:50:35.120Z,548.00
2019-03-19T09:51:40.630Z,600.00
2019-03-19T09:52:46.141Z,604.00
2019-03-19T09:53:51.642Z,608.00
2019-03-19T09:54:57.162Z,604.00
2019-03-19T09:56:02.684Z,608.00
2019-03-19T09:57:08.189Z,616.00
2019-03-19T09:58:13.677Z,696.00
2019-03-19T09:59:26.724Z,732.00
2019-03-19T10:00:24.699Z,720.00
2019-03-19T10:01:30.226Z,668.00
2019-03-19T10:02:35.719Z,616.00
2019-03-19T10:03:41.221Z,596.00
2019-03-19T10:04:46.733Z,600.00
2019-03-19T10:05:52.250Z,616.00
2019-03-19T10:07:05.685Z,560.00
2019-03-19T10:08:03.258Z,700.00
2019-03-19T10:09:08.766Z,660.00
2019-03-19T10:10:14.274Z,576.00
2019-03-19T10:11:19.791Z,624.00
2019-03-19T10:12:25.303Z,596.00
2019-03-19T10:13:30.799Z,512.00
2019-03-19T10:14:36.318Z,524.00
2019-03-19T10:15:41.821Z,564.00
2019-03-19T10:16:47.332Z,460.00
2019-03-19T10:17:52.847Z,592.00
2019-03-19T10:18:58.360Z,612.00
2019-03-19T10:20:03.871Z,624.00
2019-03-19T10:21:09.375Z,664.00
2019-03-19T10:22:15.324Z,696.00
2019-03-19T10:23:20.378Z,716.00
2019-03-19T10:24:25.888Z,716.00
2019-03-19T10:25:31.402Z,696.00
2019-03-19T10:26:36.912Z,736.00
2019-03-19T10:27:42.418Z,800.00
2019-03-19T10:28:47.929Z,816.00
2019-03-19T10:29:53.441Z,836.00
2019-03-19T10:30:58.940Z,852.00
2019-03-19T10:32:04.457Z,820.00
2019-03-19T10:33:10.017Z,804.00
2019-03-19T10:34:15.560Z,800.00
2019-03-19T10:35:20.986Z,780.00
2019-03-19T10:36:26.581Z,760.00
2019-03-19T10:37:32.011Z,748.00
2019-03-19T10:38:37.516Z,808.00
2019-03-19T10:39:43.018Z,872.00
2019-03-19T10:40:48.533Z,928.00
2019-03-19T10:41:54.032Z,956.00
2019-03-19T10:42:59.552Z,960.00
2019-03-19T10:44:05.049Z,996.00
2019-03-19T10:45:10.571Z,1040.00
2019-03-19T10:46:16.082Z,1036.00
2019-03-19T10:47:21.590Z,1052.00
2019-03-19T10:48:27.091Z,1080.00
2019-03-19T10:49:32.603Z,1132.00
2019-03-19T10:50:38.112Z,1156.00
2019-03-19T10:51:43.631Z,1160.00
2019-03-19T10:52:49.134Z,1204.00
2019-03-19T10:53:54.638Z,1184.00
2019-03-19T10:55:00.352Z,1188.00
2019-03-19T10:56:05.668Z,1152.00
2019-03-19T10:57:11.172Z,904.00
2019-03-19T10:58:16.687Z,832.00
2019-03-19T10:59:22.186Z,812.00
2019-03-19T11:00:27.705Z,720.00
2019-03-19T11:01:33.205Z,916.00
2019-03-19T11:02:38.735Z,908.00
2019-03-19T11:03:44.245Z,892.00
2019-03-19T11:04:49.736Z,896.00
2019-03-19T11:05:55.249Z,924.00
2019-03-19T11:07:00.762Z,1000.00
2019-03-19T11:08:06.285Z,1024.00
2019-03-19T11:09:11.789Z,1016.00
2019-03-19T11:10:17.285Z,988.00
2019-03-19T11:11:22.798Z,984.00
2019-03-19T11:12:28.318Z,1056.00
2019-03-19T11:13:33.818Z,1168.00
2019-03-19T11:14:39.327Z,1172.00
2019-03-19T11:15:44.849Z,1132.00
2019-03-19T11:16:50.351Z,1176.00
2019-03-19T11:17:55.867Z,1160.00
2019-03-19T11:19:01.366Z,952.00
2019-03-19T11:20:06.886Z,1016.00
2019-03-19T11:21:12.390Z,816.00
2019-03-19T11:22:17.902Z,860.00
2019-03-19T11:23:23.415Z,920.00
2019-03-19T11:24:28.926Z,872.00
2019-03-19T11:25:34.430Z,1132.00
2019-03-19T11:26:39.939Z,1180.00
2019-03-19T11:27:45.460Z,1140.00
2019-03-19T11:28:50.966Z,1112.00
2019-03-19T11:30:00.015Z,1084.00
2019-03-19T11:31:01.985Z,920.00
2019-03-19T11:32:07.507Z,936.00
2019-03-19T11:33:12.998Z,812.00
2019-03-19T11:34:18.521Z,820.00
2019-03-19T11:35:24.023Z,1000.00
2019-03-19T11:36:29.537Z,1064.00
2019-03-19T11:37:35.040Z,1148.00
2019-03-19T11:38:40.555Z,1112.00
2019-03-19T11:39:46.061Z,1112.00
2019-03-19T11:40:51.569Z,1104.00
2019-03-19T11:41:57.099Z,1104.00
2019-03-19T11:43:02.598Z,1148.00
2019-03-19T11:44:08.116Z,1192.00
2019-03-19T11:45:13.616Z,1252.00
2019-03-19T11:46:19.136Z,1244.00
2019-03-19T11:47:24.645Z,1268.00
2019-03-19T11:48:30.154Z,1352.00
2019-03-19T11:49:35.671Z,1372.00
2019-03-19T11:50:41.165Z,1396.00
2019-03-19T11:51:46.681Z,1272.00
2019-03-19T11:52:52.200Z,1232.00
2019-03-19T11:53:57.704Z,1252.00
2019-03-19T11:55:03.218Z,1368.00
2019-03-19T11:56:08.721Z,1392.00
2019-03-19T11:57:14.251Z,1392.00
2019-03-19T11:58:19.750Z,1400.00
2019-03-19T11:59:25.252Z,1328.00
2019-03-19T12:00:30.786Z,1432.00
2019-03-19T12:01:36.286Z,1512.00
2019-03-19T12:02:41.801Z,1292.00
2019-03-19T12:03:47.310Z,1316.00
2019-03-19T12:04:52.812Z,1328.00
2019-03-19T12:05:58.320Z,1348.00
2019-03-19T12:07:03.838Z,1376.00
2019-03-19T12:08:09.340Z,1444.00
2019-03-19T12:09:14.865Z,1572.00
2019-03-19T12:10:20.373Z,1504.00
2019-03-19T12:11:25.879Z,1620.00
2019-03-19T12:12:31.388Z,1652.00
2019-03-19T12:13:36.898Z,1672.00
2019-03-19T12:14:42.416Z,1668.00
2019-03-19T12:15:47.918Z,1636.00
2019-03-19T12:16:53.434Z,1544.00
2019-03-19T12:17:58.940Z,1660.00
2019-03-19T12:19:04.459Z,1600.00
2019-03-19T12:20:09.966Z,1368.00
2019-03-19T12:21:15.480Z,1440.00
2019-03-19T12:22:20.999Z,1916.00
2019-03-19T12:23:26.499Z,1872.00
2019-03-19T12:24:32.851Z,1768.00
2019-03-19T12:25:37.516Z,1236.00
2019-03-19T12:26:43.028Z,1332.00
2019-03-19T12:27:48.548Z,1232.00
2019-03-19T12:28:54.062Z,996.00
2019-03-19T12:29:59.568Z,1012.00
2019-03-19T12:31:05.086Z,1108.00
2019-03-19T12:32:10.610Z,1252.00
2019-03-19T12:33:16.095Z,1732.00
2019-03-19T12:34:21.610Z,1796.00
2019-03-19T12:35:27.129Z,1728.00
2019-03-19T12:36:32.641Z,2276.00
2019-03-19T12:37:38.153Z,2008.00
2019-03-19T12:38:43.659Z,2008.00
2019-03-19T12:39:49.177Z,2028.00
2019-03-19T12:40:54.681Z,2076.00
2019-03-19T12:42:00.195Z,2140.00
2019-03-19T12:43:05.698Z,2124.00
2019-03-19T12:44:11.216Z,2112.00
2019-03-19T12:45:16.721Z,2148.00
2019-03-19T12:46:22.232Z,2140.00
2019-03-19T12:47:27.747Z,2104.00
2019-03-19T12:48:33.270Z,980.00
2019-03-19T12:49:38.776Z,1032.00
2019-03-19T12:50:44.288Z,1040.00
2019-03-19T12:51:49.807Z,600.00
2019-03-19T12:52:55.316Z,556.00
2019-03-19T12:54:00.816Z,556.00
2019-03-19T12:55:06.351Z,452.00
2019-03-19T12:56:11.844Z,488.00
2019-03-19T12:57:17.362Z,476.00
2019-03-19T12:58:22.865Z,492.00
2019-03-19T12:59:28.388Z,648.00
2019-03-19T13:00:34.995Z,648.00
2019-03-19T13:01:39.413Z,552.00
2019-03-19T13:02:44.924Z,488.00
2019-03-19T13:03:50.440Z,644.00
2019-03-19T13:04:55.940Z,560.00
2019-03-19T13:06:01.465Z,512.00
2019-03-19T13:07:06.974Z,604.00
2019-03-19T13:08:12.494Z,632.00
2019-03-19T13:09:18.007Z,612.00
2019-03-19T13:10:23.548Z,620.00
2019-03-19T13:11:29.039Z,532.00
2019-03-19T13:12:34.550Z,784.00
2019-03-19T13:13:41.070Z,508.00
2019-03-19T13:14:45.561Z,740.00
2019-03-19T13:15:51.079Z,784.00
2019-03-19T13:16:56.591Z,804.00
2019-03-19T13:18:02.099Z,804.00
2019-03-19T13:19:07.624Z,720.00
2019-03-19T13:20:13.136Z,712.00
2019-03-19T13:21:18.638Z,668.00
2019-03-19T13:22:24.152Z,664.00
2019-03-19T13:23:29.661Z,684.00
2019-03-19T13:24:35.185Z,560.00
2019-03-19T13:25:40.691Z,452.00
2019-03-19T13:26:46.207Z,788.00
2019-03-19T13:27:51.723Z,804.00
2019-03-19T13:28:57.227Z,888.00
2019-03-19T13:30:02.737Z,896.00
2019-03-19T13:31:08.250Z,648.00
2019-03-19T13:32:13.763Z,896.00
2019-03-19T13:33:19.278Z,928.00
2019-03-19T13:34:24.800Z,964.00
2019-03-19T13:35:30.318Z,1148.00
2019-03-19T13:36:35.837Z,1348.00
2019-03-19T13:37:41.334Z,1304.00
2019-03-19T13:38:46.845Z,1608.00
2019-03-19T13:39:52.359Z,1704.00
2019-03-19T13:40:57.869Z,1880.00
2019-03-19T13:42:03.392Z,2000.00
2019-03-19T13:43:08.900Z,2012.00
2019-03-19T13:44:14.417Z,2036.00
2019-03-19T13:45:19.932Z,2048.00
2019-03-19T13:46:25.446Z,460.00
2019-03-19T13:47:30.957Z,2048.00
2019-03-19T13:48:36.476Z,616.00
2019-03-19T13:49:43.430Z,2152.00
2019-03-19T13:50:47.501Z,2004.00
2019-03-19T13:51:53.024Z,2336.00
2019-03-19T13:52:58.569Z,2488.00